createdAt,value
2019-04-12T00:00:52.901Z,17.30
2019-04-12T00:01:52.893Z,17.30
2019-04-12T00:02:52.874Z,18.20
2019-04-12T00:03:52.888Z,17.70
2019-04-12T00:04:52.903Z,17.60
2019-04-12T00:05:52.856Z,17.00
2019-04-12T00:06:52.841Z,17.70
2019-04-12T00:07:52.842Z,17.60
2019-04-12T00:08:52.838Z,17.70
2019-04-12T00:09:52.829Z,18.40
2019-04-12T00:10:52.804Z,18.40
2019-04-12T00:11:52.809Z,17.50
2019-04-12T00:12:52.785Z,18.20
2019-04-12T00:13:52.795Z,18.00
2019-04-12T00:14:52.842Z,19.50
2019-04-12T00:15:52.768Z,20.60
2019-04-12T00:16:52.782Z,20.30
2019-04-12T00:17:52.747Z,21.40
2019-04-12T00:18:52.794Z,21.70
2019-04-12T00:19:52.755Z,21.10
2019-04-12T00:20:52.750Z,20.00
2019-04-12T00:21:52.736Z,21.00
2019-04-12T00:22:52.714Z,20.20
2019-04-12T00:23:52.720Z,21.00
2019-04-12T00:24:52.720Z,23.00
2019-04-12T00:25:52.707Z,21.30
2019-04-12T00:26:52.697Z,20.00
2019-04-12T00:27:52.695Z,21.60
2019-04-12T00:28:52.681Z,23.60
2019-04-12T00:29:52.674Z,22.00
2019-04-12T00:30:52.677Z,22.70
2019-04-12T00:31:52.665Z,22.10
2019-04-12T00:32:52.627Z,22.20
2019-04-12T00:33:52.946Z,21.60
2019-04-12T00:34:53.375Z,23.10
2019-04-12T00:35:52.635Z,21.80
2019-04-12T00:36:53.383Z,21.40
2019-04-12T00:37:55.362Z,21.00
2019-04-12T00:38:52.597Z,21.10
2019-04-12T00:39:52.592Z,21.20
2019-04-12T00:40:52.609Z,22.30
2019-04-12T00:41:52.605Z,21.00
2019-04-12T00:42:52.591Z,21.30
2019-04-12T00:43:53.813Z,20.10
2019-04-12T00:44:52.608Z,20.70
2019-04-12T00:45:52.545Z,20.40
2019-04-12T00:46:52.824Z,20.00
2019-04-12T00:47:52.545Z,21.00
2019-04-12T00:48:52.535Z,21.30
2019-04-12T00:49:52.544Z,21.80
2019-04-12T00:50:52.547Z,21.60
2019-04-12T00:51:58.778Z,21.50
2019-04-12T00:52:52.745Z,21.10
2019-04-12T00:53:52.526Z,20.70
2019-04-12T00:54:52.512Z,21.90
2019-04-12T00:55:52.472Z,21.50
2019-04-12T00:56:52.466Z,22.80
2019-04-12T00:57:52.463Z,22.80
2019-04-12T00:58:52.454Z,23.00
2019-04-12T00:59:52.426Z,21.80
2019-04-12T01:00:52.434Z,21.70
2019-04-12T01:01:52.421Z,21.00
2019-04-12T01:02:52.420Z,20.80
2019-04-12T01:03:52.407Z,21.40
2019-04-12T01:04:52.392Z,21.40
2019-04-12T01:05:52.408Z,22.10
2019-04-12T01:06:52.386Z,21.20
2019-04-12T01:07:52.408Z,22.10
2019-04-12T01:08:52.706Z,22.00
2019-04-12T01:09:53.423Z,22.50
2019-04-12T01:10:53.642Z,22.10
2019-04-12T01:11:55.176Z,22.70
2019-04-12T01:12:52.341Z,23.30
2019-04-12T01:13:52.306Z,23.20
2019-04-12T01:14:52.326Z,23.70
2019-04-12T01:15:52.318Z,23.40
2019-04-12T01:16:52.309Z,23.80
2019-04-12T01:17:52.304Z,23.80
2019-04-12T01:18:52.304Z,24.30
2019-04-12T01:19:52.266Z,24.10
2019-04-12T01:20:52.261Z,23.90
2019-04-12T01:21:52.282Z,23.20
2019-04-12T01:22:52.275Z,24.10
2019-04-12T01:23:52.243Z,24.00
2019-04-12T01:24:57.407Z,24.30
2019-04-12T01:25:52.237Z,24.10
2019-04-12T01:26:52.221Z,24.30
2019-04-12T01:27:52.223Z,25.80
2019-04-12T01:28:52.205Z,24.30
2019-04-12T01:29:52.198Z,25.30
2019-04-12T01:30:52.203Z,25.70
2019-04-12T01:31:52.193Z,26.80
2019-04-12T01:32:52.191Z,25.00
2019-04-12T01:33:52.184Z,26.40
2019-04-12T01:34:52.168Z,26.60
2019-04-12T01:35:52.160Z,26.90
2019-04-12T01:36:52.133Z,25.80
2019-04-12T01:37:52.139Z,25.90
2019-04-12T01:38:52.127Z,24.80
2019-04-12T01:39:52.168Z,25.20
2019-04-12T01:40:52.136Z,25.50
2019-04-12T01:41:52.125Z,27.70
2019-04-12T01:42:52.099Z,27.30
2019-04-12T01:43:52.094Z,27.10
2019-04-12T01:44:52.090Z,28.30
2019-04-12T01:45:52.075Z,27.20
2019-04-12T01:46:52.076Z,26.70
2019-04-12T01:47:52.059Z,26.90
2019-04-12T01:48:52.050Z,32.50
2019-04-12T01:49:52.036Z,31.00
2019-04-12T01:50:52.046Z,31.60
2019-04-12T01:51:52.025Z,31.20
2019-04-12T01:52:52.011Z,32.20
2019-04-12T01:53:52.038Z,30.60
2019-04-12T01:54:52.030Z,31.10
2019-04-12T01:55:52.001Z,33.40
2019-04-12T01:56:51.994Z,33.50
2019-04-12T01:57:52.015Z,34.20
2019-04-12T01:58:51.988Z,34.60
2019-04-12T01:59:51.982Z,34.70
2019-04-12T02:00:52.005Z,33.80
2019-04-12T02:01:51.962Z,34.70
2019-04-12T02:02:51.966Z,34.40
2019-04-12T02:03:51.958Z,35.10
2019-04-12T02:04:51.946Z,33.70
2019-04-12T02:05:51.984Z,33.70
2019-04-12T02:06:51.929Z,32.80
2019-04-12T02:07:51.928Z,34.40
2019-04-12T02:08:51.921Z,34.10
2019-04-12T02:09:51.899Z,32.60
2019-04-12T02:10:51.902Z,33.80
2019-04-12T02:11:51.892Z,33.40
2019-04-12T02:12:51.881Z,33.40
2019-04-12T02:13:51.861Z,35.30
2019-04-12T02:14:51.847Z,34.60
2019-04-12T02:15:51.854Z,35.20
2019-04-12T02:16:51.843Z,33.00
2019-04-12T02:17:51.828Z,32.00
2019-04-12T02:18:51.837Z,32.80
2019-04-12T02:19:51.838Z,33.00
2019-04-12T02:20:51.828Z,32.40
2019-04-12T02:21:51.796Z,32.30
2019-04-12T02:22:51.801Z,32.90
2019-04-12T02:23:51.799Z,31.90
2019-04-12T02:24:51.794Z,30.70
2019-04-12T02:25:51.792Z,29.60
2019-04-12T02:26:51.775Z,31.40
2019-04-12T02:27:51.752Z,30.80
2019-04-12T02:28:51.748Z,30.20
2019-04-12T02:29:51.762Z,29.40
2019-04-12T02:30:51.755Z,29.10
2019-04-12T02:31:51.733Z,30.20
2019-04-12T02:32:51.763Z,29.80
2019-04-12T02:33:51.765Z,27.60
2019-04-12T02:34:51.743Z,28.50
2019-04-12T02:35:51.720Z,29.00
2019-04-12T02:36:51.710Z,28.10
2019-04-12T02:37:51.726Z,28.10
2019-04-12T02:38:51.687Z,27.60
2019-04-12T02:39:51.674Z,28.00
2019-04-12T02:40:51.663Z,28.70
2019-04-12T02:41:51.673Z,28.60
2019-04-12T02:42:51.647Z,28.50
2019-04-12T02:43:51.682Z,26.50
2019-04-12T02:44:51.630Z,27.60
2019-04-12T02:45:51.651Z,26.60
2019-04-12T02:46:51.629Z,26.80
2019-04-12T02:47:51.625Z,25.70
2019-04-12T02:48:51.600Z,26.40
2019-04-12T02:49:51.599Z,27.30
2019-04-12T02:50:51.588Z,27.20
2019-04-12T02:51:51.589Z,25.80
2019-04-12T02:52:51.577Z,26.60
2019-04-12T02:53:51.646Z,24.80
2019-04-12T02:54:51.573Z,26.60
2019-04-12T02:55:51.575Z,26.30
2019-04-12T02:56:51.554Z,27.70
2019-04-12T02:57:51.589Z,26.90
2019-04-12T02:58:51.531Z,26.20
2019-04-12T02:59:51.569Z,26.70
2019-04-12T03:00:51.516Z,26.90
2019-04-12T03:01:51.497Z,27.50
2019-04-12T03:02:51.544Z,27.60
2019-04-12T03:03:51.480Z,28.60
2019-04-12T03:04:51.530Z,27.00
2019-04-12T03:05:51.463Z,28.30
2019-04-12T03:06:51.481Z,28.30
2019-04-12T03:07:51.471Z,26.80
2019-04-12T03:08:51.455Z,26.90
2019-04-12T03:09:51.842Z,27.50
2019-04-12T03:10:51.434Z,27.40
2019-04-12T03:11:51.453Z,25.30
2019-04-12T03:12:51.424Z,25.30
2019-04-12T03:13:51.409Z,26.00
2019-04-12T03:14:51.426Z,26.10
2019-04-12T03:15:51.403Z,26.00
2019-04-12T03:16:51.391Z,25.60
2019-04-12T03:17:51.380Z,27.70
2019-04-12T03:18:51.381Z,26.20
2019-04-12T03:19:51.380Z,26.50
2019-04-12T03:20:51.352Z,25.70
2019-04-12T03:21:51.352Z,25.70
2019-04-12T03:22:51.349Z,26.00
2019-04-12T03:23:51.329Z,26.00
2019-04-12T03:24:51.330Z,26.20
2019-04-12T03:25:53.810Z,26.80
2019-04-12T03:26:51.312Z,25.70
2019-04-12T03:27:51.336Z,27.10
2019-04-12T03:28:51.299Z,26.90
2019-04-12T03:29:51.283Z,25.70
2019-04-12T03:30:51.302Z,24.70
2019-04-12T03:31:51.275Z,25.50
2019-04-12T03:32:51.276Z,25.30
2019-04-12T03:33:51.281Z,24.00
2019-04-12T03:34:51.263Z,23.50
2019-04-12T03:35:51.274Z,22.20
2019-04-12T03:36:51.242Z,22.00
2019-04-12T03:37:51.236Z,22.30
2019-04-12T03:38:51.245Z,22.90
2019-04-12T03:39:51.239Z,22.60
2019-04-12T03:40:51.220Z,23.20
2019-04-12T03:41:51.201Z,24.40
2019-04-12T03:42:51.220Z,24.70
2019-04-12T03:43:51.185Z,26.10
2019-04-12T03:44:51.194Z,24.80
2019-04-12T03:45:51.171Z,24.00
2019-04-12T03:46:51.175Z,23.60
2019-04-12T03:47:51.171Z,23.20
2019-04-12T03:48:51.166Z,22.90
2019-04-12T03:49:51.158Z,22.60
2019-04-12T03:50:51.152Z,22.50
2019-04-12T03:51:51.136Z,23.30
2019-04-12T03:52:51.144Z,22.90
2019-04-12T03:53:51.336Z,23.90
2019-04-12T03:54:51.150Z,21.60
2019-04-12T03:55:51.143Z,21.60
2019-04-12T03:56:51.116Z,21.60
2019-04-12T03:57:51.080Z,22.30
2019-04-12T03:58:51.066Z,22.90
2019-04-12T03:59:51.065Z,21.70
2019-04-12T04:00:51.074Z,21.60
2019-04-12T04:01:51.075Z,22.00
2019-04-12T04:02:51.045Z,22.40
2019-04-12T04:03:51.031Z,21.90
2019-04-12T04:04:51.057Z,22.40
2019-04-12T04:05:51.024Z,20.80
2019-04-12T04:06:51.017Z,21.40
2019-04-12T04:07:51.002Z,22.00
2019-04-12T04:08:50.994Z,21.00
2019-04-12T04:09:51.007Z,21.80
2019-04-12T04:10:50.987Z,23.40
2019-04-12T04:11:50.991Z,22.70
2019-04-12T04:12:50.971Z,22.80
2019-04-12T04:13:50.960Z,23.50
2019-04-12T04:14:50.951Z,23.10
2019-04-12T04:15:50.928Z,22.30
2019-04-12T04:16:50.943Z,22.10
2019-04-12T04:17:50.929Z,21.60
2019-04-12T04:18:50.909Z,22.50
2019-04-12T04:19:50.919Z,23.40
2019-04-12T04:20:50.912Z,22.50
2019-04-12T04:21:50.913Z,22.80
2019-04-12T04:22:50.885Z,22.80
2019-04-12T04:23:50.893Z,23.70
2019-04-12T04:24:50.889Z,23.40
2019-04-12T04:25:50.862Z,23.60
2019-04-12T04:26:50.875Z,20.40
2019-04-12T04:27:50.900Z,19.80
2019-04-12T04:28:50.836Z,21.30
2019-04-12T04:29:50.856Z,23.20
2019-04-12T04:30:50.840Z,24.50
2019-04-12T04:31:54.160Z,24.70
2019-04-12T04:32:50.817Z,24.40
2019-04-12T04:33:50.807Z,24.40
2019-04-12T04:34:50.799Z,23.30
2019-04-12T04:35:50.773Z,22.90
2019-04-12T04:36:50.784Z,23.10
2019-04-12T04:37:50.793Z,20.30
2019-04-12T04:38:50.752Z,21.40
2019-04-12T04:39:50.769Z,22.00
2019-04-12T04:40:50.745Z,21.80
2019-04-12T04:41:50.737Z,21.80
2019-04-12T04:42:50.747Z,22.30
2019-04-12T04:43:50.766Z,22.50
2019-04-12T04:44:50.716Z,21.90
2019-04-12T04:45:50.723Z,23.70
2019-04-12T04:46:50.703Z,23.70
2019-04-12T04:47:50.690Z,21.70
2019-04-12T04:48:50.718Z,19.70
2019-04-12T04:49:50.684Z,19.90
2019-04-12T04:50:50.682Z,19.90
2019-04-12T04:51:50.659Z,20.10
2019-04-12T04:52:50.665Z,20.00
2019-04-12T04:53:50.685Z,19.50
2019-04-12T04:54:50.649Z,19.40
2019-04-12T04:55:50.630Z,19.50
2019-04-12T04:56:50.606Z,19.30
2019-04-12T04:57:50.616Z,18.60
2019-04-12T04:58:50.650Z,20.50
2019-04-12T04:59:50.608Z,19.40
2019-04-12T05:00:50.582Z,18.30
2019-04-12T05:01:50.576Z,19.30
2019-04-12T05:02:50.582Z,20.00
2019-04-12T05:03:50.610Z,18.50
2019-04-12T05:04:50.568Z,19.80
2019-04-12T05:05:50.565Z,20.40
2019-04-12T05:06:50.530Z,21.20
2019-04-12T05:07:50.542Z,21.60
2019-04-12T05:08:50.559Z,20.50
2019-04-12T05:09:50.536Z,20.30
2019-04-12T05:10:50.513Z,21.10
2019-04-12T05:11:50.482Z,21.00
2019-04-12T05:12:50.480Z,21.70
2019-04-12T05:13:50.467Z,22.10
2019-04-12T05:14:50.482Z,22.70
2019-04-12T05:15:50.447Z,24.70
2019-04-12T05:16:50.454Z,23.60
2019-04-12T05:17:50.460Z,23.20
2019-04-12T05:18:50.456Z,24.60
2019-04-12T05:19:50.424Z,24.10
2019-04-12T05:20:50.423Z,25.00
2019-04-12T05:21:50.426Z,24.10
2019-04-12T05:22:50.416Z,23.40
2019-04-12T05:23:50.424Z,24.30
2019-04-12T05:24:50.399Z,24.50
2019-04-12T05:25:50.370Z,24.80
2019-04-12T05:26:50.409Z,24.60
2019-04-12T05:27:50.372Z,23.90
2019-04-12T05:28:50.345Z,24.00
2019-04-12T05:29:50.333Z,24.30
2019-04-12T05:30:50.382Z,24.00
2019-04-12T05:31:50.342Z,23.20
2019-04-12T05:32:50.311Z,23.70
2019-04-12T05:33:50.302Z,22.90
2019-04-12T05:34:50.303Z,23.30
2019-04-12T05:35:50.291Z,23.40
2019-04-12T05:36:50.296Z,24.10
2019-04-12T05:37:50.267Z,24.40
2019-04-12T05:38:50.269Z,22.90
2019-04-12T05:39:50.263Z,23.60
2019-04-12T05:40:50.292Z,23.70
2019-04-12T05:41:50.250Z,24.20
2019-04-12T05:42:50.233Z,24.20
2019-04-12T05:43:50.234Z,24.50
2019-04-12T05:44:50.222Z,25.40
2019-04-12T05:45:50.221Z,25.40
2019-04-12T05:46:50.222Z,25.40
2019-04-12T05:47:50.200Z,24.60
2019-04-12T05:48:50.163Z,24.10
2019-04-12T05:49:50.182Z,24.60
2019-04-12T05:50:50.177Z,23.70
2019-04-12T05:51:50.161Z,26.30
2019-04-12T05:52:50.141Z,24.70
2019-04-12T05:53:50.134Z,25.00
2019-04-12T05:54:50.124Z,24.90
2019-04-12T05:55:50.158Z,25.20
2019-04-12T05:56:56.991Z,25.70
2019-04-12T05:57:50.105Z,27.00
2019-04-12T05:58:50.110Z,27.00
2019-04-12T05:59:50.087Z,26.70
2019-04-12T06:00:50.093Z,26.70
2019-04-12T06:01:50.074Z,27.10
2019-04-12T06:02:50.047Z,26.10
2019-04-12T06:03:50.062Z,25.50
2019-04-12T06:04:50.062Z,25.80
2019-04-12T06:05:50.016Z,26.60
2019-04-12T06:06:50.041Z,25.00
2019-04-12T06:07:50.018Z,23.60
2019-04-12T06:08:50.015Z,24.80
2019-04-12T06:09:50.015Z,25.00
2019-04-12T06:10:50.002Z,24.40
2019-04-12T06:11:49.976Z,23.70
2019-04-12T06:12:49.989Z,25.30
2019-04-12T06:13:49.966Z,24.90
2019-04-12T06:14:49.962Z,25.50
2019-04-12T06:15:49.951Z,24.20
2019-04-12T06:17:00.625Z,23.80
2019-04-12T06:17:49.918Z,22.70
2019-04-12T06:18:49.914Z,23.60
2019-04-12T06:19:49.906Z,24.70
2019-04-12T06:20:49.904Z,24.00
2019-04-12T06:21:49.895Z,24.50
2019-04-12T06:22:49.868Z,25.60
2019-04-12T06:23:49.872Z,26.30
2019-04-12T06:24:49.857Z,26.50
2019-04-12T06:25:49.865Z,26.20
2019-04-12T06:26:49.892Z,25.50
2019-04-12T06:27:49.831Z,26.40
2019-04-12T06:28:49.847Z,26.60
2019-04-12T06:29:49.815Z,24.50
2019-04-12T06:30:49.802Z,25.40
2019-04-12T06:31:49.817Z,25.60
2019-04-12T06:32:49.814Z,25.40
2019-04-12T06:33:49.837Z,25.30
2019-04-12T06:34:49.782Z,26.10
2019-04-12T06:35:49.767Z,27.40
2019-04-12T06:36:49.774Z,28.50
2019-04-12T06:37:49.752Z,28.50
2019-04-12T06:38:49.739Z,30.30
2019-04-12T06:39:49.732Z,29.10
2019-04-12T06:40:49.729Z,28.30
2019-04-12T06:41:49.708Z,29.90
2019-04-12T06:42:49.723Z,29.00
2019-04-12T06:43:49.718Z,27.90
2019-04-12T06:44:49.707Z,28.70
2019-04-12T06:45:49.699Z,28.70
2019-04-12T06:46:49.718Z,29.60
2019-04-12T06:47:49.711Z,31.50
2019-04-12T06:48:49.674Z,30.10
2019-04-12T06:49:49.660Z,29.60
2019-04-12T06:50:49.679Z,29.30
2019-04-12T06:51:49.643Z,28.50
2019-04-12T06:52:49.611Z,28.80
2019-04-12T06:53:49.596Z,28.30
2019-04-12T06:54:49.622Z,28.50
2019-04-12T06:55:49.585Z,28.30
2019-04-12T06:56:49.598Z,29.30
2019-04-12T06:57:49.594Z,29.20
2019-04-12T06:58:49.608Z,29.40
2019-04-12T06:59:49.563Z,27.10
2019-04-12T07:00:49.596Z,27.20
2019-04-12T07:01:49.586Z,27.00
2019-04-12T07:02:49.538Z,28.30
2019-04-12T07:03:56.766Z,30.20
2019-04-12T07:04:49.530Z,34.60
2019-04-12T07:05:49.497Z,41.50
2019-04-12T07:06:49.493Z,38.70
2019-04-12T07:07:49.486Z,33.10
2019-04-12T07:08:49.476Z,33.50
2019-04-12T07:09:49.470Z,30.60
2019-04-12T07:10:49.476Z,30.50
2019-04-12T07:11:49.456Z,29.50
2019-04-12T07:12:49.495Z,29.50
2019-04-12T07:13:49.433Z,26.60
2019-04-12T07:14:49.419Z,26.00
2019-04-12T07:15:49.437Z,26.10
2019-04-12T07:16:49.455Z,26.20
2019-04-12T07:17:49.390Z,25.50
2019-04-12T07:18:49.376Z,26.40
2019-04-12T07:19:49.401Z,26.00
2019-04-12T07:20:49.359Z,26.30
2019-04-12T07:21:49.418Z,26.10
2019-04-12T07:22:49.381Z,25.00
2019-04-12T07:23:49.395Z,24.20
2019-04-12T07:24:49.379Z,25.70
2019-04-12T07:25:49.383Z,25.70
2019-04-12T07:26:49.324Z,25.30
2019-04-12T07:27:49.316Z,24.90
2019-04-12T07:28:49.308Z,27.60
2019-04-12T07:29:49.319Z,28.60
2019-04-12T07:30:56.624Z,27.80
2019-04-12T07:31:49.270Z,28.10
2019-04-12T07:32:49.294Z,29.10
2019-04-12T07:33:49.280Z,28.10
2019-04-12T07:34:49.238Z,29.90
2019-04-12T07:35:49.236Z,29.40
2019-04-12T07:36:49.226Z,28.70
2019-04-12T07:37:49.219Z,28.40
2019-04-12T07:38:49.236Z,28.70
2019-04-12T07:39:49.211Z,29.30
2019-04-12T07:40:49.198Z,27.80
2019-04-12T07:41:49.216Z,28.20
2019-04-12T07:42:49.181Z,28.20
2019-04-12T07:43:49.181Z,27.60
2019-04-12T07:44:49.215Z,27.60
2019-04-12T07:45:49.154Z,27.90
2019-04-12T07:46:49.151Z,27.10
2019-04-12T07:47:49.142Z,28.10
2019-04-12T07:48:49.125Z,27.70
2019-04-12T07:49:49.166Z,27.80
2019-04-12T07:50:49.113Z,27.40
2019-04-12T07:51:49.114Z,28.40
2019-04-12T07:52:49.081Z,26.80
2019-04-12T07:53:49.073Z,28.20
2019-04-12T07:54:49.076Z,28.50
2019-04-12T07:55:49.076Z,29.80
2019-04-12T07:56:49.071Z,27.10
2019-04-12T07:57:49.035Z,26.20
2019-04-12T07:58:49.049Z,27.90
2019-04-12T07:59:49.054Z,28.90
2019-04-12T08:00:49.044Z,29.50
2019-04-12T08:01:49.014Z,28.40
2019-04-12T08:02:49.025Z,30.80
2019-04-12T08:03:49.005Z,29.00
2019-04-12T08:04:49.010Z,29.90
2019-04-12T08:05:48.993Z,28.80
2019-04-12T08:06:48.992Z,28.10
2019-04-12T08:07:48.966Z,28.50
2019-04-12T08:08:48.980Z,27.00
2019-04-12T08:09:48.960Z,28.20
2019-04-12T08:10:48.945Z,29.50
2019-04-12T08:11:48.941Z,27.90
2019-04-12T08:12:48.932Z,28.70
2019-04-12T08:13:48.925Z,29.30
2019-04-12T08:14:48.919Z,29.60
2019-04-12T08:15:48.900Z,28.50
2019-04-12T08:16:48.876Z,30.20
2019-04-12T08:17:48.893Z,29.30
2019-04-12T08:18:48.863Z,29.90
2019-04-12T08:19:48.885Z,29.10
2019-04-12T08:20:48.862Z,29.50
2019-04-12T08:21:48.848Z,28.20
2019-04-12T08:22:48.831Z,28.50
2019-04-12T08:23:48.809Z,27.10
2019-04-12T08:24:48.814Z,27.30
2019-04-12T08:25:48.815Z,27.60
2019-04-12T08:26:48.815Z,28.70
2019-04-12T08:27:57.821Z,28.60
2019-04-12T08:28:48.790Z,29.40
2019-04-12T08:29:48.821Z,28.00
2019-04-12T08:30:48.913Z,27.00
2019-04-12T08:31:48.763Z,28.20
2019-04-12T08:32:48.770Z,29.60
2019-04-12T08:33:48.742Z,29.40
2019-04-12T08:34:48.734Z,30.50
2019-04-12T08:35:48.731Z,29.30
2019-04-12T08:36:48.735Z,29.30
2019-04-12T08:37:48.747Z,28.50
2019-04-12T08:38:48.712Z,29.60
2019-04-12T08:39:48.735Z,31.10
2019-04-12T08:40:48.672Z,32.00
2019-04-12T08:41:48.679Z,32.00
2019-04-12T08:42:48.649Z,31.50
2019-04-12T08:43:50.087Z,34.50
2019-04-12T08:44:48.648Z,33.70
2019-04-12T08:45:48.691Z,32.30
2019-04-12T08:46:48.636Z,32.60
2019-04-12T08:47:48.611Z,32.30
2019-04-12T08:48:48.617Z,32.90
2019-04-12T08:49:49.707Z,34.40
2019-04-12T08:50:48.597Z,33.20
2019-04-12T08:51:48.602Z,34.90
2019-04-12T08:52:48.571Z,34.90
2019-04-12T08:53:48.593Z,34.40
2019-04-12T08:54:48.553Z,34.60
2019-04-12T08:55:48.616Z,33.90
2019-04-12T08:56:48.587Z,33.80
2019-04-12T08:57:48.603Z,33.00
2019-04-12T08:58:48.533Z,33.40
2019-04-12T08:59:48.569Z,31.10
2019-04-12T09:00:48.510Z,31.20
2019-04-12T09:01:48.527Z,32.00
2019-04-12T09:02:58.402Z,30.50
2019-04-12T09:03:48.498Z,31.10
2019-04-12T09:04:48.552Z,31.60
2019-04-12T09:05:48.551Z,31.40
2019-04-12T09:06:48.496Z,32.10
2019-04-12T09:07:48.617Z,31.90
2019-04-12T09:08:48.456Z,32.50
2019-04-12T09:09:48.503Z,32.20
2019-04-12T09:10:48.463Z,31.50
2019-04-12T09:11:48.456Z,32.00
2019-04-12T09:12:48.405Z,32.60
2019-04-12T09:13:48.404Z,35.00
2019-04-12T09:14:48.437Z,33.10
2019-04-12T09:15:48.400Z,35.50
2019-04-12T09:16:48.387Z,35.30
2019-04-12T09:17:48.342Z,34.80
2019-04-12T09:18:48.393Z,35.70
2019-04-12T09:19:48.370Z,34.10
2019-04-12T09:20:48.335Z,34.40
2019-04-12T09:21:48.434Z,34.60
2019-04-12T09:22:48.370Z,35.90
2019-04-12T09:23:48.364Z,34.10
2019-04-12T09:24:48.324Z,34.50
2019-04-12T09:25:48.380Z,34.30
2019-04-12T09:26:48.311Z,33.30
2019-04-12T09:27:48.372Z,32.60
2019-04-12T09:28:48.277Z,34.30
2019-04-12T09:29:48.241Z,33.60
2019-04-12T09:30:48.308Z,33.90
2019-04-12T09:31:48.221Z,33.60
2019-04-12T09:32:48.326Z,32.90
2019-04-12T09:33:48.291Z,32.00
2019-04-12T09:34:48.195Z,31.90
2019-04-12T09:35:48.201Z,33.10
2019-04-12T09:36:48.176Z,32.20
2019-04-12T09:37:48.168Z,31.00
2019-04-12T09:38:48.176Z,26.40
2019-04-12T09:39:48.169Z,22.60
2019-04-12T09:40:48.163Z,22.50
2019-04-12T09:41:48.175Z,21.80
2019-04-12T09:42:48.124Z,21.70
2019-04-12T09:43:48.131Z,22.80
2019-04-12T09:44:48.106Z,25.30
2019-04-12T09:45:48.112Z,25.50
2019-04-12T09:46:48.098Z,26.00
2019-04-12T09:47:48.080Z,25.80
2019-04-12T09:48:48.072Z,26.80
2019-04-12T09:49:48.058Z,26.60
2019-04-12T09:50:48.054Z,24.90
2019-04-12T09:51:48.100Z,27.40
2019-04-12T09:52:48.035Z,25.20
2019-04-12T09:53:48.039Z,24.60
2019-04-12T09:54:48.036Z,25.00
2019-04-12T09:55:48.005Z,25.30
2019-04-12T09:56:48.018Z,24.30
2019-04-12T09:57:48.014Z,23.00
2019-04-12T09:58:47.991Z,23.40
2019-04-12T09:59:47.981Z,22.30
2019-04-12T10:00:47.961Z,22.20
2019-04-12T10:01:47.961Z,21.50
2019-04-12T10:02:47.965Z,22.40
2019-04-12T10:03:47.946Z,22.50
2019-04-12T10:04:47.930Z,21.30
2019-04-12T10:05:47.949Z,21.00
2019-04-12T10:06:47.915Z,21.90
2019-04-12T10:07:47.921Z,21.20
2019-04-12T10:08:47.909Z,21.00
2019-04-12T10:09:47.912Z,21.10
2019-04-12T10:10:49.506Z,20.00
2019-04-12T10:11:47.889Z,19.20
2019-04-12T10:12:47.878Z,20.00
2019-04-12T10:13:47.880Z,20.80
2019-04-12T10:14:47.861Z,21.30
2019-04-12T10:15:47.867Z,20.80
2019-04-12T10:16:47.825Z,21.00
2019-04-12T10:17:47.878Z,21.50
2019-04-12T10:18:47.843Z,21.60
2019-04-12T10:19:47.823Z,20.60
2019-04-12T10:20:47.824Z,21.70
2019-04-12T10:21:47.790Z,21.60
2019-04-12T10:22:47.804Z,22.20
2019-04-12T10:23:47.793Z,20.30
2019-04-12T10:24:47.770Z,21.40
2019-04-12T10:25:47.819Z,20.60
2019-04-12T10:26:47.772Z,20.10
2019-04-12T10:27:47.755Z,20.80
2019-04-12T10:28:50.708Z,20.70
2019-04-12T10:29:47.730Z,20.30
2019-04-12T10:30:47.740Z,20.10
2019-04-12T10:31:47.721Z,19.70
2019-04-12T10:32:47.725Z,19.10
2019-04-12T10:33:47.694Z,21.70
2019-04-12T10:34:55.619Z,21.10
2019-04-12T10:35:47.721Z,21.30
2019-04-12T10:36:51.306Z,21.40
2019-04-12T10:37:47.675Z,22.70
2019-04-12T10:38:47.682Z,23.30
2019-04-12T10:39:47.664Z,23.20
2019-04-12T10:40:47.694Z,24.30
2019-04-12T10:41:47.637Z,22.90
2019-04-12T10:42:47.643Z,23.20
2019-04-12T10:43:47.616Z,24.00
2019-04-12T10:44:47.608Z,25.40
2019-04-12T10:45:47.620Z,24.00
2019-04-12T10:46:47.607Z,22.90
2019-04-12T10:47:47.598Z,24.10
2019-04-12T10:48:47.595Z,23.30
2019-04-12T10:49:47.578Z,21.90
2019-04-12T10:50:47.581Z,23.50
2019-04-12T10:51:47.595Z,23.70
2019-04-12T10:52:47.557Z,22.10
2019-04-12T10:53:47.542Z,22.70
2019-04-12T10:54:47.526Z,22.80
2019-04-12T10:55:47.521Z,22.80
2019-04-12T10:56:47.505Z,22.30
2019-04-12T10:57:47.513Z,22.70
2019-04-12T10:58:47.502Z,22.20
2019-04-12T10:59:47.495Z,23.40
2019-04-12T11:00:47.537Z,22.90
2019-04-12T11:01:47.483Z,22.00
2019-04-12T11:02:47.474Z,23.30
2019-04-12T11:03:47.472Z,21.60
2019-04-12T11:04:47.453Z,22.10
2019-04-12T11:05:47.447Z,21.50
2019-04-12T11:06:47.443Z,22.10
2019-04-12T11:07:47.429Z,21.40
2019-04-12T11:08:47.410Z,21.60
2019-04-12T11:09:47.459Z,22.50
2019-04-12T11:10:47.458Z,22.00
2019-04-12T11:11:47.391Z,21.80
2019-04-12T11:12:47.388Z,21.30
2019-04-12T11:13:47.395Z,21.90
2019-04-12T11:14:47.375Z,21.90
2019-04-12T11:15:47.366Z,21.00
2019-04-12T11:16:47.366Z,22.90
2019-04-12T11:17:47.342Z,22.10
2019-04-12T11:18:47.342Z,22.90
2019-04-12T11:19:47.365Z,22.20
2019-04-12T11:20:47.332Z,22.90
2019-04-12T11:21:47.341Z,22.70
2019-04-12T11:22:47.328Z,23.40
2019-04-12T11:23:47.320Z,23.90
2019-04-12T11:24:47.318Z,24.50
2019-04-12T11:25:47.299Z,23.80
2019-04-12T11:26:47.282Z,23.50
2019-04-12T11:27:47.276Z,24.10
2019-04-12T11:28:47.286Z,23.50
2019-04-12T11:29:47.272Z,24.60
2019-04-12T11:30:47.271Z,24.30
2019-04-12T11:31:47.253Z,23.70
2019-04-12T11:32:47.234Z,25.00
2019-04-12T11:33:47.249Z,27.30
2019-04-12T11:34:47.263Z,26.50
2019-04-12T11:35:47.223Z,25.80
2019-04-12T11:36:47.215Z,25.30
2019-04-12T11:37:47.189Z,23.50
2019-04-12T11:38:47.189Z,24.40
2019-04-12T11:39:47.199Z,25.20
2019-04-12T11:40:47.197Z,26.00
2019-04-12T11:41:47.227Z,22.90
2019-04-12T11:42:47.175Z,21.40
2019-04-12T11:43:47.155Z,22.30
2019-04-12T11:44:47.154Z,20.50
2019-04-12T11:45:47.138Z,21.60
2019-04-12T11:46:47.151Z,22.30
2019-04-12T11:47:47.318Z,24.30
2019-04-12T11:48:47.135Z,23.80
2019-04-12T11:49:47.124Z,22.90
2019-04-12T11:50:47.103Z,21.40
2019-04-12T11:51:47.109Z,23.30
2019-04-12T11:52:47.088Z,20.80
2019-04-12T11:53:47.482Z,23.50
2019-04-12T11:54:47.072Z,24.90
2019-04-12T11:55:47.068Z,24.10
2019-04-12T11:56:47.079Z,23.50
2019-04-12T11:57:47.048Z,22.00
2019-04-12T11:58:48.310Z,25.70
2019-04-12T11:59:47.366Z,25.20
2019-04-12T12:00:47.041Z,25.00
2019-04-12T12:01:47.041Z,21.00
2019-04-12T12:02:47.025Z,22.80
2019-04-12T12:03:47.002Z,22.60
2019-04-12T12:04:47.023Z,23.30
2019-04-12T12:05:47.014Z,20.90
2019-04-12T12:06:46.978Z,20.80
2019-04-12T12:07:50.162Z,23.70
2019-04-12T12:08:46.987Z,24.60
2019-04-12T12:09:46.981Z,23.00
2019-04-12T12:10:46.973Z,19.80
2019-04-12T12:11:46.946Z,19.30
2019-04-12T12:12:46.958Z,20.70
2019-04-12T12:13:46.938Z,20.10
2019-04-12T12:14:46.924Z,19.60
2019-04-12T12:15:46.953Z,17.90
2019-04-12T12:16:46.934Z,18.50
2019-04-12T12:17:46.909Z,19.10
2019-04-12T12:18:46.960Z,18.00
2019-04-12T12:19:46.899Z,19.90
2019-04-12T12:20:46.893Z,19.60
2019-04-12T12:21:46.902Z,19.90
2019-04-12T12:22:46.882Z,16.10
2019-04-12T12:23:46.879Z,17.00
2019-04-12T12:24:46.880Z,18.30
2019-04-12T12:25:46.872Z,18.30
2019-04-12T12:26:46.870Z,16.20
2019-04-12T12:27:46.853Z,17.70
2019-04-12T12:28:46.843Z,17.10
2019-04-12T12:29:46.897Z,19.00
2019-04-12T12:30:46.858Z,18.60
2019-04-12T12:31:46.852Z,16.10
2019-04-12T12:32:46.841Z,17.50
2019-04-12T12:33:46.838Z,17.10
2019-04-12T12:34:47.473Z,17.10
2019-04-12T12:35:47.155Z,17.50
2019-04-12T12:36:46.834Z,16.90
2019-04-12T12:37:46.785Z,17.00
2019-04-12T12:38:46.781Z,17.60
2019-04-12T12:39:46.804Z,15.50
2019-04-12T12:40:46.813Z,14.50
2019-04-12T12:41:46.800Z,14.50
2019-04-12T12:42:46.829Z,14.70
2019-04-12T12:43:46.781Z,15.80
2019-04-12T12:44:46.780Z,16.00
2019-04-12T12:45:46.762Z,13.70
2019-04-12T12:46:46.761Z,13.90
2019-04-12T12:47:46.782Z,15.40
2019-04-12T12:48:46.770Z,19.80
2019-04-12T12:49:46.767Z,15.80
2019-04-12T12:50:46.726Z,14.30
2019-04-12T12:51:46.728Z,15.60
2019-04-12T12:52:46.778Z,15.40